Time;durP1;ratioP1;P1;durP2;ratioP2;P2;SDS_P1;SDS_P2;PMS_P1;PMS_P2;Temp;Humidity;BMP_temperature;BMP_pressure;BME280_temperature;BME280_humidity;BME280_pressure;Samples;Min_cycle;Max_cycle;Signal;HPM_P1;HPM_P2
2021/03/07 00:00:27;;;;;;;4.20;3.30;;;4.70;99.90;;;;;;4982238;28;21282;-71
2021/03/07 00:02:55;;;;;;;3.33;2.53;;;4.70;99.90;;;;;;4981212;28;20945;-75
2021/03/07 00:05:30;;;;;;;2.20;2.00;;;4.80;99.90;;;;;;4979982;28;20635;-72
2021/03/07 00:07:58;;;;;;;5.43;2.50;;;4.90;99.90;;;;;;4977698;28;20919;-69
2021/03/07 00:10:26;;;;;;;2.80;2.20;;;4.80;99.90;;;;;;4977810;28;20641;-68
2021/03/07 00:12:52;;;;;;;3.73;2.30;;;4.90;99.90;;;;;;4981332;28;20683;-68
2021/03/07 00:15:35;;;;;;;;;;;;;;;;;;;;;
2021/03/07 00:18:01;;;;;;;5.80;2.50;;;4.90;99.90;;;;;;4961160;28;20592;-70
2021/03/07 00:20:42;;;;;;;3.27;2.20;;;4.90;99.90;;;;;;4978839;28;20654;-69
2021/03/07 00:23:18;;;;;;;4.27;2.47;;;4.80;99.90;;;;;;4980373;28;20675;-69
2021/03/07 00:25:44;;;;;;;2.63;2.17;;;4.90;99.90;;;;;;4960164;28;20958;-72
2021/03/07 00:28:19;;;;;;;4.60;2.53;;;4.90;99.90;;;;;;4977087;28;20618;-69
2021/03/07 00:30:47;;;;;;;2.57;2.10;;;4.90;99.90;;;;;;4978318;28;20300;-71
2021/03/07 00:33:26;;;;;;;2.63;2.07;;;4.80;99.90;;;;;;4977932;28;20656;-70
2021/03/07 00:36:05;;;;;;;3.10;2.80;;;4.90;99.90;;;;;;4977818;28;20604;-70
2021/03/07 00:38:36;;;;;;;5.57;2.07;;;4.80;99.90;;;;;;4975539;28;20951;-70
2021/03/07 00:41:04;;;;;;;3.93;2.40;;;4.80;99.90;;;;;;4975746;28;20668;-69
2021/03/07 00:43:47;;;;;;;3.00;2.70;;;4.80;99.90;;;;;;4980290;28;20637;-72
2021/03/07 00:46:16;;;;;;;2.97;2.00;;;4.80;99.90;;;;;;4976302;28;21139;-70
2021/03/07 00:48:53;;;;;;;3.50;2.47;;;4.70;99.90;;;;;;4976260;28;20720;-70
2021/03/07 00:51:27;;;;;;;3.40;2.30;;;4.80;99.90;;;;;;4972473;28;21186;-69
2021/03/07 00:53:52;;;;;;;3.17;2.07;;;4.70;99.90;;;;;;4978190;28;20628;-68
2021/03/07 00:56:18;;;;;;;3.17;2.37;;;4.80;99.90;;;;;;4963419;28;20704;-69
2021/03/07 00:58:43;;;;;;;3.20;1.80;;;4.70;99.90;;;;;;4975174;28;20594;-70
2021/03/07 01:01:13;;;;;;;3.13;1.90;;;4.80;99.90;;;;;;4970558;28;20719;-71
2021/03/07 01:03:49;;;;;;;2.80;2.30;;;4.80;99.90;;;;;;4975283;28;20249;-69
2021/03/07 01:06:17;;;;;;;2.90;2.07;;;4.70;99.90;;;;;;4975807;28;20744;-69
2021/03/07 01:08:55;;;;;;;2.57;2.30;;;4.70;99.90;;;;;;4977497;28;20719;-70
2021/03/07 01:11:41;;;;;;;2.40;1.80;;;4.70;99.90;;;;;;4978293;28;20649;-69
2021/03/07 01:14:09;;;;;;;2.23;2.00;;;4.70;99.90;;;;;;4978045;28;20947;-70
2021/03/07 01:16:34;;;;;;;4.67;2.13;;;4.70;99.90;;;;;;4976349;28;21430;-70
2021/03/07 01:19:00;;;;;;;4.03;1.83;;;4.70;99.90;;;;;;4979606;28;20744;-69
2021/03/07 01:21:27;;;;;;;2.63;2.07;;;4.70;99.90;;;;;;4959328;28;20234;-69
2021/03/07 01:23:55;;;;;;;2.47;2.27;;;4.80;99.90;;;;;;4954545;28;20645;-69
2021/03/07 01:26:35;;;;;;;2.57;2.20;;;4.80;99.90;;;;;;4980353;28;20613;-70
2021/03/07 01:29:13;;;;;;;4.27;2.10;;;4.80;99.90;;;;;;4975635;28;20703;-69
2021/03/07 01:31:38;;;;;;;4.83;2.30;;;4.80;99.90;;;;;;4953216;28;20683;-72
2021/03/07 01:34:12;;;;;;;4.10;2.33;;;4.80;99.90;;;;;;4961751;28;21061;-69
2021/03/07 01:36:40;;;;;;;3.27;2.20;;;4.70;99.90;;;;;;4986593;28;20529;-69
2021/03/07 01:39:18;;;;;;;;;;;;;;;;;;;;;
2021/03/07 01:41:57;;;;;;;5.10;3.40;;;4.70;99.90;;;;;;4976212;28;20667;-71
2021/03/07 01:44:41;;;;;;;3.40;1.83;;;4.70;99.90;;;;;;4984839;28;20621;-69
2021/03/07 01:47:10;;;;;;;5.43;1.90;;;4.70;99.90;;;;;;4986156;28;20931;-69
2021/03/07 01:49:36;;;;;;;2.27;2.07;;;4.60;99.90;;;;;;4980393;28;20736;-70
2021/03/07 01:52:04;;;;;;;2.50;1.80;;;4.70;99.90;;;;;;4979173;28;20733;-70
2021/03/07 01:54:40;;;;;;;2.13;1.93;;;4.70;99.90;;;;;;4982984;28;20670;-69
2021/03/07 01:57:11;;;;;;;3.70;2.07;;;4.70;99.90;;;;;;4980975;28;20695;-71
2021/03/07 01:59:41;;;;;;;2.37;2.17;;;4.60;99.90;;;;;;4979351;28;21032;-69
2021/03/07 02:02:19;;;;;;;2.63;2.07;;;4.60;99.90;;;;;;4979335;28;22410;-70
2021/03/07 02:04:59;;;;;;;2.93;2.20;;;4.60;99.90;;;;;;4982136;28;22509;-70
2021/03/07 02:07:37;;;;;;;3.43;2.10;;;4.60;99.90;;;;;;4977200;28;20609;-71
2021/03/07 02:10:05;;;;;;;2.10;1.83;;;4.50;99.90;;;;;;4979638;28;20706;-72
2021/03/07 02:12:33;;;;;;;2.73;1.93;;;4.50;99.90;;;;;;4983216;28;20799;-68
2021/03/07 02:15:07;;;;;;;3.00;2.53;;;4.60;99.90;;;;;;4979234;28;20625;-70
2021/03/07 02:17:33;;;;;;;5.30;2.30;;;4.60;99.90;;;;;;4981380;28;20827;-69
2021/03/07 02:20:09;;;;;;;2.63;2.43;;;4.70;99.90;;;;;;4981614;28;20738;-69
2021/03/07 02:22:44;;;;;;;3.70;1.90;;;4.70;99.90;;;;;;4983030;28;20266;-68
2021/03/07 02:25:23;;;;;;;2.57;2.27;;;4.60;99.90;;;;;;4980805;28;20659;-70
2021/03/07 02:27:51;;;;;;;4.40;2.27;;;4.70;99.90;;;;;;4980187;28;20670;-69
2021/03/07 02:30:21;;;;;;;3.30;2.20;;;4.70;99.90;;;;;;4977783;28;20633;-72
2021/03/07 02:33:07;;;;;;;2.50;2.27;;;4.70;99.90;;;;;;4980756;28;20698;-69
2021/03/07 02:35:37;;;;;;;2.70;2.00;;;4.70;99.90;;;;;;4979729;28;20735;-69
2021/03/07 02:38:10;;;;;;;2.40;2.20;;;4.70;99.90;;;;;;4979864;28;21167;-71
2021/03/07 02:40:36;;;;;;;2.87;2.33;;;4.80;99.90;;;;;;4979150;28;20740;-70
2021/03/07 02:43:11;;;;;;;3.27;2.20;;;4.80;99.90;;;;;;4981719;28;20673;-70
2021/03/07 02:45:39;;;;;;;3.20;2.30;;;4.60;99.90;;;;;;4979553;28;20703;-70
2021/03/07 02:48:12;;;;;;;2.50;2.10;;;4.70;99.90;;;;;;4980047;28;20626;-69
2021/03/07 02:51:02;;;;;;;4.70;2.67;;;4.70;99.90;;;;;;4980811;28;20660;-70
2021/03/07 02:53:46;;;;;;;3.67;2.20;;;4.60;99.90;;;;;;4965283;28;20652;-70
2021/03/07 02:56:18;;;;;;;2.87;2.13;;;4.60;99.90;;;;;;4961499;28;20661;-72
2021/03/07 02:58:56;;;;;;;4.33;2.50;;;4.70;99.90;;;;;;4981568;28;21230;-70
2021/03/07 03:01:24;;;;;;;3.07;2.37;;;4.80;99.90;;;;;;4979092;28;21067;-71
2021/03/07 03:03:53;;;;;;;4.70;2.77;;;4.80;99.90;;;;;;4978094;28;20647;-70
2021/03/07 03:06:22;;;;;;;2.93;2.50;;;4.70;99.90;;;;;;4978788;28;20632;-70
2021/03/07 03:09:01;;;;;;;3.77;2.33;;;4.70;99.90;;;;;;4979965;28;20668;-69
2021/03/07 03:11:33;;;;;;;2.40;1.97;;;4.60;99.90;;;;;;4978738;28;20637;-69
2021/03/07 03:14:09;;;;;;;2.60;2.40;;;4.60;99.90;;;;;;4980347;28;21155;-70
2021/03/07 03:16:46;;;;;;;3.53;2.67;;;4.70;99.90;;;;;;4979934;28;20708;-70
2021/03/07 03:19:13;;;;;;;2.50;2.30;;;4.60;99.90;;;;;;4961762;28;20653;-69
2021/03/07 03:21:44;;;;;;;2.50;2.17;;;4.70;99.90;;;;;;4960734;28;22161;-69
2021/03/07 03:24:12;;;;;;;2.10;2.00;;;4.70;99.90;;;;;;4980451;28;20783;-70
2021/03/07 03:26:46;;;;;;;2.90;2.13;;;4.70;99.90;;;;;;4978913;28;20616;-71
2021/03/07 03:29:14;;;;;;;2.67;2.47;;;4.80;99.90;;;;;;4976044;28;20952;-70
2021/03/07 03:31:50;;;;;;;2.17;2.00;;;4.70;99.90;;;;;;4975722;28;21286;-72
2021/03/07 03:34:15;;;;;;;2.40;1.97;;;4.60;99.90;;;;;;4979775;28;20621;-70
2021/03/07 03:36:41;;;;;;;3.37;2.07;;;4.60;99.90;;;;;;4979161;28;20629;-69
2021/03/07 03:39:16;;;;;;;2.10;2.00;;;4.60;99.90;;;;;;4976390;28;20777;-71
2021/03/07 03:42:00;;;;;;;;;;;;;;;;;;;;;
2021/03/07 03:44:45;;;;;;;2.60;2.10;;;4.60;99.90;;;;;;4977738;28;20585;-70
2021/03/07 03:47:20;;;;;;;3.87;2.00;;;4.60;99.90;;;;;;4960092;28;22351;-69
2021/03/07 03:50:05;;;;;;;3.23;2.20;;;4.60;99.90;;;;;;4978071;28;20896;-70
2021/03/07 03:52:51;;;;;;;2.90;2.37;;;4.60;99.90;;;;;;4974307;28;21075;-69
2021/03/07 03:55:30;;;;;;;2.67;2.27;;;4.70;99.90;;;;;;4980645;28;20635;-71
2021/03/07 03:58:02;;;;;;;4.20;2.50;;;4.60;99.90;;;;;;4975189;28;20582;-70
2021/03/07 04:00:41;;;;;;;3.13;2.40;;;4.60;99.90;;;;;;4976988;28;20737;-69
2021/03/07 04:03:32;;;;;;;3.20;2.47;;;4.60;99.90;;;;;;4975347;28;20690;-70
2021/03/07 04:06:03;;;;;;;3.50;2.07;;;4.60;99.90;;;;;;4975636;28;20672;-71
2021/03/07 04:08:36;;;;;;;3.17;2.60;;;4.60;99.90;;;;;;4977855;28;20667;-69
2021/03/07 04:11:04;;;;;;;5.53;2.40;;;4.60;99.90;;;;;;4958608;28;20756;-69
2021/03/07 04:13:36;;;;;;;2.83;2.63;;;4.60;99.90;;;;;;4955498;28;20744;-70
2021/03/07 04:16:05;;;;;;;2.70;2.43;;;4.60;99.90;;;;;;4980203;28;20638;-70
2021/03/07 04:18:33;;;;;;;3.17;2.87;;;4.60;99.90;;;;;;4986240;28;20979;-70
2021/03/07 04:21:00;;;;;;;3.10;2.33;;;4.60;99.90;;;;;;4962659;28;20657;-68
2021/03/07 04:23:26;;;;;;;3.20;2.40;;;4.60;99.90;;;;;;4992322;23;20698;-68
2021/03/07 04:25:57;;;;;;;3.13;2.60;;;4.70;99.90;;;;;;4979940;28;20677;-68
2021/03/07 04:28:28;;;;;;;3.83;2.50;;;4.60;99.90;;;;;;4984104;28;20244;-68
2021/03/07 04:31:17;;;;;;;3.10;2.60;;;4.60;99.90;;;;;;4964424;28;21207;-68
2021/03/07 04:33:52;;;;;;;3.10;2.60;;;4.70;99.90;;;;;;4974771;28;20655;-68
2021/03/07 04:36:18;;;;;;;3.67;2.50;;;4.60;99.90;;;;;;4978053;28;20599;-68
2021/03/07 04:38:46;;;;;;;4.73;2.60;;;4.70;99.90;;;;;;4970657;28;20685;-68
2021/03/07 04:41:17;;;;;;;4.50;3.00;;;4.60;99.90;;;;;;4959613;28;20903;-68
2021/03/07 04:43:57;;;;;;;4.23;3.43;;;4.60;99.90;;;;;;4961081;28;21248;-68
2021/03/07 04:46:27;;;;;;;3.53;2.80;;;4.70;99.90;;;;;;4966453;28;20622;-68
2021/03/07 04:48:59;;;;;;;3.33;2.70;;;4.50;99.90;;;;;;4960324;28;20694;-68
2021/03/07 04:51:34;;;;;;;3.20;2.90;;;4.50;99.90;;;;;;4954318;28;20764;-68
2021/03/07 04:54:04;;;;;;;3.53;2.93;;;4.50;99.90;;;;;;4955480;28;20662;-68
2021/03/07 04:56:36;;;;;;;3.33;3.00;;;4.50;99.90;;;;;;4956120;28;20638;-68
2021/03/07 04:59:01;;;;;;;3.77;3.17;;;4.60;99.90;;;;;;4955022;28;20629;-68
2021/03/07 05:01:38;;;;;;;4.00;3.60;;;4.60;99.90;;;;;;4954234;28;21240;-69
2021/03/07 05:04:07;;;;;;;3.30;3.00;;;4.50;99.90;;;;;;4945283;28;20230;-68
2021/03/07 05:06:51;;;;;;;3.90;3.50;;;4.60;99.90;;;;;;4957625;28;20653;-68
2021/03/07 05:09:26;;;;;;;4.80;3.40;;;4.50;99.90;;;;;;4959660;28;20590;-68
2021/03/07 05:11:56;;;;;;;3.47;2.63;;;4.60;99.90;;;;;;4937080;28;20772;-68
2021/03/07 05:14:32;;;;;;;4.00;3.50;;;4.70;99.90;;;;;;4953069;28;20689;-68
2021/03/07 05:17:19;;;;;;;5.23;3.10;;;4.70;99.90;;;;;;4956569;28;20610;-68
2021/03/07 05:19:48;;;;;;;3.47;3.17;;;4.70;99.90;;;;;;4954049;28;20633;-68
2021/03/07 05:22:18;;;;;;;5.33;3.47;;;4.70;99.90;;;;;;4937890;28;20690;-68
2021/03/07 05:24:51;;;;;;;4.70;3.23;;;4.60;99.90;;;;;;4957499;28;20665;-68
2021/03/07 05:27:22;;;;;;;3.63;3.23;;;4.70;99.90;;;;;;4938706;28;20618;-68
2021/03/07 05:29:49;;;;;;;3.80;3.50;;;4.70;99.90;;;;;;4952262;28;20621;-68
2021/03/07 05:32:15;;;;;;;4.10;3.60;;;4.60;99.90;;;;;;4952602;28;21086;-68
2021/03/07 05:34:46;;;;;;;4.40;3.30;;;4.70;99.90;;;;;;4957401;28;20756;-68
2021/03/07 05:37:20;;;;;;;3.33;2.93;;;4.70;99.90;;;;;;4957839;28;20205;-68
2021/03/07 05:39:59;;;;;;;3.70;3.30;;;4.60;99.90;;;;;;4954818;28;21142;-68
2021/03/07 05:42:25;;;;;;;5.33;4.13;;;4.60;99.90;;;;;;4952693;28;22319;-68
2021/03/07 05:45:02;;;;;;;6.33;3.50;;;4.60;99.90;;;;;;4951020;28;21240;-68
2021/03/07 05:47:30;;;;;;;6.60;3.47;;;4.60;99.90;;;;;;4951269;28;20364;-68
2021/03/07 05:50:11;;;;;;;7.43;3.90;;;4.70;99.90;;;;;;4938398;28;20949;-68
2021/03/07 05:52:49;;;;;;;6.00;3.73;;;4.70;99.90;;;;;;4951522;28;20661;-68
2021/03/07 05:55:24;;;;;;;3.70;3.40;;;4.60;99.90;;;;;;4938270;28;21306;-68
2021/03/07 05:58:05;;;;;;;4.73;3.20;;;4.60;99.90;;;;;;4937012;28;20715;-68
2021/03/07 06:00:34;;;;;;;3.13;2.83;;;4.60;99.90;;;;;;4955272;28;21003;-68
2021/03/07 06:03:00;;;;;;;4.87;3.53;;;4.50;99.90;;;;;;4937991;28;20657;-68
2021/03/07 06:05:26;;;;;;;3.93;3.53;;;4.50;99.90;;;;;;4952078;28;20646;-68
2021/03/07 06:07:56;;;;;;;5.27;3.60;;;4.60;99.90;;;;;;4934993;28;22939;-68
2021/03/07 06:10:35;;;;;;;6.40;3.30;;;4.60;99.90;;;;;;4950914;28;20828;-68
2021/03/07 06:13:10;;;;;;;5.57;3.93;;;4.60;99.90;;;;;;4953200;28;20613;-68
2021/03/07 06:15:53;;;;;;;6.13;4.20;;;4.70;99.90;;;;;;4938958;28;20633;-68
2021/03/07 06:18:45;;;;;;;5.53;3.50;;;4.70;99.90;;;;;;4953607;28;20598;-68
2021/03/07 06:21:38;;;;;;;3.60;3.23;;;4.80;99.90;;;;;;4952740;28;20996;-68
2021/03/07 06:24:06;;;;;;;5.33;3.60;;;4.70;99.90;;;;;;4947794;28;20761;-68
2021/03/07 06:26:36;;;;;;;4.60;3.40;;;4.80;99.90;;;;;;4936298;28;21005;-68
2021/03/07 06:29:19;;;;;;;4.80;3.43;;;4.80;99.90;;;;;;4936252;28;21251;-68
2021/03/07 06:31:46;;;;;;;3.67;3.37;;;4.80;99.90;;;;;;4932340;28;20642;-68
2021/03/07 06:34:14;;;;;;;4.77;3.30;;;4.70;99.90;;;;;;4956949;28;20660;-68
2021/03/07 06:36:54;;;;;;;5.90;3.60;;;4.70;99.90;;;;;;4954321;28;20622;-68
2021/03/07 06:39:42;;;;;;;4.70;4.10;;;4.70;99.90;;;;;;4958648;28;21269;-69
2021/03/07 06:42:22;;;;;;;4.37;3.47;;;4.70;99.90;;;;;;4957111;28;21331;-68
2021/03/07 06:44:52;;;;;;;4.80;3.87;;;4.60;99.90;;;;;;4943097;28;20777;-68
2021/03/07 06:47:25;;;;;;;5.43;3.70;;;4.60;99.90;;;;;;4937701;28;20618;-68
2021/03/07 06:50:23;;;;;;;3.67;3.13;;;4.50;99.90;;;;;;4955575;28;21167;-68
2021/03/07 06:52:55;;;;;;;3.87;3.57;;;4.60;99.90;;;;;;4956589;28;21025;-68
2021/03/07 06:55:31;;;;;;;7.37;4.60;;;4.60;99.90;;;;;;4956334;28;21164;-68
2021/03/07 06:58:15;;;;;;;5.27;4.10;;;4.50;99.90;;;;;;4939580;28;20657;-68
2021/03/07 07:00:42;;;;;;;8.80;3.83;;;4.60;99.90;;;;;;4957667;28;20685;-68
2021/03/07 07:03:13;;;;;;;5.03;3.77;;;4.70;99.90;;;;;;4950495;28;20765;-68
2021/03/07 07:05:43;;;;;;;5.53;4.57;;;4.70;99.90;;;;;;4929520;28;20985;-68
2021/03/07 07:08:14;;;;;;;6.40;3.90;;;4.70;99.90;;;;;;4950438;28;20618;-68
2021/03/07 07:10:49;;;;;;;6.60;4.00;;;4.70;99.90;;;;;;4954160;28;20665;-68
2021/03/07 07:13:15;;;;;;;5.00;4.10;;;4.70;99.90;;;;;;4960153;28;20690;-68
2021/03/07 07:15:56;;;;;;;4.00;3.60;;;4.70;99.90;;;;;;4956514;28;20721;-68
2021/03/07 07:18:23;;;;;;;9.23;4.70;;;4.80;99.90;;;;;;4956511;28;20188;-68
2021/03/07 07:20:55;;;;;;;5.00;3.57;;;4.80;99.90;;;;;;4961955;28;20665;-69
2021/03/07 07:23:21;;;;;;;7.20;3.70;;;4.70;99.90;;;;;;4977218;28;20668;-68
2021/03/07 07:25:47;;;;;;;4.73;3.73;;;4.60;99.90;;;;;;4977199;28;20785;-68
2021/03/07 07:28:14;;;;;;;3.80;3.50;;;4.70;99.90;;;;;;4956012;28;20697;-68
2021/03/07 07:30:39;;;;;;;3.60;3.20;;;4.70;99.90;;;;;;4954469;28;20228;-68
2021/03/07 07:33:16;;;;;;;5.47;3.30;;;4.80;99.90;;;;;;4956601;28;20752;-68
2021/03/07 07:35:43;;;;;;;7.03;3.10;;;4.80;99.90;;;;;;4952908;28;20545;-68
2021/03/07 07:38:11;;;;;;;4.37;3.30;;;4.80;99.90;;;;;;4957030;28;20641;-68
2021/03/07 07:40:42;;;;;;;3.30;2.97;;;4.70;99.90;;;;;;4956840;28;20712;-68
2021/03/07 07:43:10;;;;;;;5.00;3.30;;;4.70;99.90;;;;;;4953883;28;21250;-68
2021/03/07 07:45:37;;;;;;;4.10;3.20;;;4.90;99.90;;;;;;4951762;28;21232;-68
2021/03/07 07:48:09;;;;;;;5.50;3.90;;;4.90;99.90;;;;;;4943911;28;20686;-67
2021/03/07 07:50:38;;;;;;;4.63;2.77;;;4.90;99.90;;;;;;4959219;28;20644;-68
2021/03/07 07:53:07;;;;;;;3.40;3.07;;;4.90;99.90;;;;;;4961998;28;20614;-68
2021/03/07 07:55:49;;;;;;;5.80;3.53;;;5.00;99.90;;;;;;4960106;28;20642;-68
2021/03/07 07:58:36;;;;;;;4.47;2.67;;;4.90;99.90;;;;;;4941920;28;20626;-68
2021/03/07 08:01:04;;;;;;;4.57;2.63;;;5.00;99.90;;;;;;4943613;28;21294;-68
2021/03/07 08:03:37;;;;;;;5.53;3.03;;;5.10;99.90;;;;;;4953917;28;20843;-68
2021/03/07 08:06:05;;;;;;;4.83;2.63;;;5.00;99.90;;;;;;4960055;28;20610;-68
2021/03/07 08:08:37;;;;;;;3.90;2.80;;;5.10;99.90;;;;;;4940688;28;20734;-68
2021/03/07 08:11:07;;;;;;;6.60;2.77;;;5.10;99.90;;;;;;4950052;28;20637;-68
2021/03/07 08:13:33;;;;;;;3.90;2.73;;;5.10;99.90;;;;;;4964829;28;21048;-68
2021/03/07 08:16:01;;;;;;;5.63;2.87;;;5.00;99.90;;;;;;4959152;28;20662;-68
2021/03/07 08:18:48;;;;;;;9.93;3.00;;;5.00;99.90;;;;;;4944295;28;20191;-68
2021/03/07 08:21:23;;;;;;;7.60;3.07;;;5.20;99.90;;;;;;4927753;28;20642;-68
2021/03/07 08:24:03;;;;;;;4.97;2.67;;;5.10;99.90;;;;;;4945749;28;20653;-68
2021/03/07 08:26:44;;;;;;;4.43;3.07;;;5.20;99.90;;;;;;4951452;28;20788;-68
2021/03/07 08:29:42;;;;;;;3.23;2.40;;;5.30;99.90;;;;;;4964141;28;20621;-69
2021/03/07 08:32:32;;;;;;;5.15;2.50;;;5.30;99.90;;;;;;4951451;28;20514;-68
2021/03/07 08:35:22;;;;;;;5.80;2.80;;;5.30;99.90;;;;;;4931434;28;20211;-68
2021/03/07 08:38:07;;;;;;;6.53;2.63;;;5.30;99.90;;;;;;4949188;28;20610;-68
2021/03/07 08:40:34;;;;;;;3.87;2.60;;;5.40;99.90;;;;;;4931063;28;20705;-68
2021/03/07 08:43:22;;;;;;;4.20;2.47;;;5.40;99.90;;;;;;4928609;28;20788;-70
2021/03/07 08:46:10;;;;;;;2.83;2.60;;;5.30;99.90;;;;;;4932067;28;20757;-69
2021/03/07 08:48:38;;;;;;;7.83;2.43;;;5.40;99.90;;;;;;4952740;28;20622;-69
2021/03/07 08:51:05;;;;;;;4.33;2.47;;;5.40;99.90;;;;;;4952856;28;20642;-71
2021/03/07 08:53:33;;;;;;;5.53;2.47;;;5.30;99.90;;;;;;4930724;28;20628;-69
2021/03/07 08:55:59;;;;;;;4.30;2.43;;;5.40;99.90;;;;;;4949591;28;20754;-70
2021/03/07 08:58:25;;;;;;;8.00;3.10;;;5.40;99.90;;;;;;4951390;28;20629;-68
2021/03/07 09:00:53;;;;;;;4.20;2.50;;;5.40;99.90;;;;;;4938705;28;20670;-69
2021/03/07 09:03:20;;;;;;;3.37;2.27;;;5.40;99.90;;;;;;4949705;28;20684;-70
2021/03/07 09:05:46;;;;;;;4.83;2.37;;;5.30;99.90;;;;;;4950989;28;20674;-69
2021/03/07 09:08:12;;;;;;;4.10;2.63;;;5.40;99.90;;;;;;4942079;28;21003;-70
2021/03/07 09:10:44;;;;;;;3.87;2.50;;;5.50;99.90;;;;;;4971349;28;20634;-71
2021/03/07 09:13:21;;;;;;;2.83;2.43;;;5.50;99.90;;;;;;4960018;28;20194;-69
2021/03/07 09:15:54;;;;;;;5.30;2.80;;;5.50;99.90;;;;;;4948920;28;20708;-70
2021/03/07 09:18:21;;;;;;;6.50;2.80;;;5.50;99.90;;;;;;4957395;28;21206;-68
2021/03/07 09:20:49;;;;;;;4.63;2.87;;;5.50;99.90;;;;;;4956204;28;20656;-71
2021/03/07 09:23:26;;;;;;;3.43;2.57;;;5.70;99.90;;;;;;4936439;28;20645;-68
2021/03/07 09:25:52;;;;;;;3.90;3.50;;;5.80;99.90;;;;;;4933192;28;20741;-66
2021/03/07 09:28:54;;;;;;;3.60;2.43;;;5.90;99.90;;;;;;4942148;28;21008;-69
2021/03/07 09:31:30;;;;;;;6.03;3.00;;;6.00;99.90;;;;;;4937121;28;20244;-69
2021/03/07 09:33:57;;;;;;;5.17;2.63;;;6.20;99.90;;;;;;4938008;28;20693;-69
2021/03/07 09:36:25;;;;;;;4.33;2.63;;;6.20;99.90;;;;;;4959959;28;20853;-68
2021/03/07 09:38:52;;;;;;;4.80;2.97;;;6.30;99.90;;;;;;4955037;28;20622;-70
2021/03/07 09:41:38;;;;;;;4.90;2.73;;;6.30;99.90;;;;;;4950298;28;21219;-68
2021/03/07 09:44:12;;;;;;;2.77;2.53;;;6.30;99.90;;;;;;4934310;28;20700;-69
2021/03/07 09:46:42;;;;;;;3.13;2.83;;;6.40;99.90;;;;;;4942011;28;20650;-70
2021/03/07 09:49:10;;;;;;;4.80;2.73;;;6.40;99.90;;;;;;4956813;28;20710;-69
2021/03/07 09:51:38;;;;;;;4.03;3.33;;;6.40;99.90;;;;;;4949890;28;20649;-69
2021/03/07 09:54:09;;;;;;;2.70;2.50;;;6.40;99.90;;;;;;4937552;28;20666;-68
2021/03/07 09:56:35;;;;;;;3.80;2.40;;;6.50;99.90;;;;;;4937392;28;21528;-69
2021/03/07 09:59:15;;;;;;;3.13;2.53;;;6.60;99.90;;;;;;4946524;28;20637;-69
2021/03/07 10:01:46;;;;;;;3.20;2.90;;;6.70;99.90;;;;;;4951017;28;20657;-69
2021/03/07 10:04:24;;;;;;;5.53;3.20;;;6.60;99.90;;;;;;4953296;28;20653;-69
2021/03/07 10:06:50;;;;;;;3.77;2.20;;;6.50;99.90;;;;;;4951808;28;20657;-69
2021/03/07 10:09:15;;;;;;;3.67;3.10;;;6.50;99.90;;;;;;4941700;28;20699;-68
2021/03/07 10:11:57;;;;;;;6.13;3.07;;;6.50;99.90;;;;;;4951362;28;20215;-68
2021/03/07 10:14:28;;;;;;;3.50;3.00;;;6.50;99.90;;;;;;4941046;28;20286;-68
2021/03/07 10:16:54;;;;;;;4.80;3.00;;;6.50;99.90;;;;;;4954175;28;20973;-69
2021/03/07 10:19:20;;;;;;;5.33;2.93;;;6.70;99.90;;;;;;4960591;28;20701;-68
2021/03/07 10:21:47;;;;;;;3.77;2.70;;;6.70;99.90;;;;;;4938848;28;20229;-69
2021/03/07 10:24:17;;;;;;;4.17;2.93;;;6.70;99.90;;;;;;4958580;28;20653;-69
2021/03/07 10:26:45;;;;;;;4.27;3.10;;;6.70;99.90;;;;;;4949391;28;20606;-69
2021/03/07 10:29:24;;;;;;;3.70;2.73;;;6.80;99.90;;;;;;4974936;28;20626;-69
2021/03/07 10:32:03;;;;;;;7.40;3.20;;;6.80;99.90;;;;;;4971408;28;20638;-69
2021/03/07 10:34:37;;;;;;;5.47;2.80;;;6.80;99.90;;;;;;4971644;28;20642;-69
2021/03/07 10:37:05;;;;;;;8.90;2.90;;;6.90;99.90;;;;;;4958309;28;20626;-69
2021/03/07 10:39:31;;;;;;;4.63;2.60;;;7.00;99.90;;;;;;4960385;28;20637;-69
2021/03/07 10:42:07;;;;;;;8.03;3.43;;;7.00;99.90;;;;;;4970434;28;20658;-69
2021/03/07 10:44:33;;;;;;;3.40;2.83;;;6.90;99.90;;;;;;4964820;23;20234;-66
2021/03/07 10:47:16;;;;;;;6.80;2.80;;;6.90;99.90;;;;;;4954513;28;20621;-65
2021/03/07 10:49:44;;;;;;;3.50;3.20;;;6.80;99.90;;;;;;4957515;28;20625;-65
2021/03/07 10:52:10;;;;;;;3.57;3.10;;;6.90;99.90;;;;;;4960599;28;20626;-63
2021/03/07 10:54:37;;;;;;;5.83;3.40;;;6.90;99.90;;;;;;4958892;28;20668;-64
2021/03/07 10:57:06;;;;;;;5.47;3.73;;;6.90;99.90;;;;;;4970127;28;20270;-64
2021/03/07 10:59:32;;;;;;;4.60;3.80;;;6.90;99.90;;;;;;4954019;28;20617;-66
2021/03/07 11:01:58;;;;;;;4.03;3.70;;;6.80;99.90;;;;;;4955853;28;21266;-63
2021/03/07 11:04:23;;;;;;;6.53;4.17;;;6.90;99.90;;;;;;4956198;28;20211;-64
2021/03/07 11:06:49;;;;;;;4.80;3.80;;;6.80;99.90;;;;;;4959950;28;20179;-64
2021/03/07 11:09:14;;;;;;;5.23;3.47;;;6.80;99.90;;;;;;4957344;28;20194;-64
2021/03/07 11:11:42;;;;;;;5.90;3.60;;;6.80;99.90;;;;;;4957264;28;20219;-64
2021/03/07 11:14:07;;;;;;;4.43;3.47;;;6.90;99.90;;;;;;4975276;28;20321;-64
2021/03/07 11:16:33;;;;;;;5.30;3.70;;;6.70;99.90;;;;;;4974322;28;20656;-64
2021/03/07 11:19:01;;;;;;;5.40;4.10;;;6.80;99.90;;;;;;4976947;28;20198;-65
2021/03/07 11:21:26;;;;;;;7.33;3.90;;;6.80;99.90;;;;;;4983127;28;20614;-64
2021/03/07 11:23:52;;;;;;;6.67;3.97;;;6.70;99.90;;;;;;4955854;28;20646;-64
2021/03/07 11:26:18;;;;;;;4.40;3.93;;;6.70;99.90;;;;;;4958934;28;20198;-64
2021/03/07 11:28:43;;;;;;;4.73;3.57;;;6.70;99.90;;;;;;4956669;28;20221;-64
2021/03/07 11:31:09;;;;;;;4.67;3.90;;;6.70;99.90;;;;;;4957521;28;20274;-64
2021/03/07 11:33:34;;;;;;;7.00;4.67;;;6.80;99.90;;;;;;4958664;28;20218;-64
2021/03/07 11:36:00;;;;;;;5.07;4.57;;;6.70;99.90;;;;;;4957008;28;20210;-64
2021/03/07 11:38:25;;;;;;;6.97;4.70;;;6.80;99.90;;;;;;4967539;28;20194;-64
2021/03/07 11:40:51;;;;;;;6.23;5.00;;;6.50;99.90;;;;;;4958896;28;20605;-64
2021/03/07 11:43:16;;;;;;;8.90;5.40;;;6.40;99.90;;;;;;4961616;28;20243;-64
2021/03/07 11:45:42;;;;;;;11.23;5.93;;;6.30;99.90;;;;;;4956653;28;20186;-64
2021/03/07 11:48:08;;;;;;;7.00;6.03;;;6.40;99.90;;;;;;4956091;28;20180;-64
2021/03/07 11:50:34;;;;;;;7.97;5.33;;;6.30;99.90;;;;;;4954105;28;20221;-64
2021/03/07 11:53:00;;;;;;;8.00;5.50;;;6.30;99.90;;;;;;4956116;28;21019;-64
2021/03/07 11:55:25;;;;;;;8.33;6.17;;;6.40;99.90;;;;;;4956843;28;20473;-64
2021/03/07 11:57:51;;;;;;;7.47;5.60;;;6.50;99.90;;;;;;4959479;28;20238;-64
2021/03/07 12:00:17;;;;;;;11.07;6.80;;;6.60;99.90;;;;;;4960198;28;20226;-66
2021/03/07 12:02:42;;;;;;;7.97;5.40;;;6.60;99.90;;;;;;4984174;28;20212;-64
2021/03/07 12:05:09;;;;;;;10.90;6.70;;;6.60;99.90;;;;;;4959868;28;20653;-65
2021/03/07 12:07:34;;;;;;;9.00;7.23;;;6.60;99.90;;;;;;4955404;28;20278;-64
2021/03/07 12:10:00;;;;;;;11.40;7.90;;;6.60;99.90;;;;;;4965455;28;20725;-64
2021/03/07 12:12:26;;;;;;;8.90;7.27;;;6.50;99.90;;;;;;4957530;28;20634;-62
2021/03/07 12:14:51;;;;;;;10.07;7.33;;;6.60;99.90;;;;;;4952727;28;20303;-63
2021/03/07 12:17:17;;;;;;;11.17;8.07;;;6.60;99.90;;;;;;4957502;28;20195;-63
2021/03/07 12:19:45;;;;;;;9.27;6.90;;;6.60;99.90;;;;;;4955380;28;20194;-63
2021/03/07 12:22:10;;;;;;;10.30;8.10;;;6.60;99.90;;;;;;4958146;28;20211;-63
2021/03/07 12:24:36;;;;;;;9.27;8.27;;;6.50;99.90;;;;;;4959478;28;21208;-62
2021/03/07 12:27:04;;;;;;;11.70;7.60;;;6.50;99.90;;;;;;4961356;28;20549;-63
2021/03/07 12:29:37;;;;;;;11.83;8.20;;;6.40;99.90;;;;;;4965396;28;20245;-63
2021/03/07 12:32:07;;;;;;;10.30;7.97;;;6.50;99.90;;;;;;4963160;28;20638;-63
2021/03/07 12:34:33;;;;;;;12.40;8.10;;;6.50;99.90;;;;;;4966786;28;20646;-62
2021/03/07 12:36:58;;;;;;;12.07;7.83;;;6.50;99.90;;;;;;4957229;28;20615;-63
2021/03/07 12:39:24;;;;;;;11.10;8.03;;;6.60;99.90;;;;;;4956706;28;20696;-63
2021/03/07 12:41:50;;;;;;;10.53;8.23;;;6.70;99.90;;;;;;4952292;28;20334;-63
2021/03/07 12:44:15;;;;;;;11.40;8.00;;;6.70;99.90;;;;;;4954966;28;20227;-63
2021/03/07 12:46:41;;;;;;;12.70;8.87;;;6.60;99.90;;;;;;4954677;28;20190;-63
2021/03/07 12:49:07;;;;;;;11.63;8.57;;;6.60;99.90;;;;;;4956027;28;20245;-63
2021/03/07 12:51:33;;;;;;;11.77;9.00;;;6.60;99.90;;;;;;4954307;28;20218;-63
2021/03/07 12:53:59;;;;;;;12.30;8.73;;;6.80;99.90;;;;;;4956908;28;21071;-64
2021/03/07 12:56:25;;;;;;;13.43;8.90;;;6.90;99.90;;;;;;4959757;28;21168;-63
2021/03/07 12:58:50;;;;;;;14.70;8.97;;;6.80;99.90;;;;;;4953062;28;20635;-63
2021/03/07 13:01:17;;;;;;;11.80;9.30;;;6.90;99.90;;;;;;4953404;28;20222;-62
2021/03/07 13:03:43;;;;;;;13.00;8.77;;;6.90;99.90;;;;;;4953029;28;20230;-63
2021/03/07 13:06:09;;;;;;;11.70;8.90;;;6.90;99.90;;;;;;4953735;28;20641;-63
2021/03/07 13:08:34;;;;;;;10.80;8.90;;;6.90;99.90;;;;;;4955633;28;20195;-62
2021/03/07 13:11:00;;;;;;;12.40;9.67;;;7.00;99.90;;;;;;4951448;28;20642;-62
2021/03/07 13:13:26;;;;;;;10.37;8.23;;;7.00;99.90;;;;;;4948751;28;20191;-62
2021/03/07 13:15:51;;;;;;;11.10;8.80;;;7.00;99.90;;;;;;4952938;28;21572;-63
2021/03/07 13:18:17;;;;;;;14.27;10.20;;;7.10;99.90;;;;;;4953539;28;20201;-63
2021/03/07 13:20:42;;;;;;;15.70;9.07;;;7.10;99.90;;;;;;4959276;28;20246;-63
2021/03/07 13:23:08;;;;;;;12.50;9.33;;;7.10;99.90;;;;;;4955581;28;20222;-63